Time;durP1;ratioP1;P1;durP2;ratioP2;P2;SDS_P1;SDS_P2;PMS_P1;PMS_P2;Temp;Humidity;BMP_temperature;BMP_pressure;BME280_temperature;BME280_humidity;BME280_pressure;Samples;Min_cycle;Max_cycle;Signal;HPM_P1;HPM_P2
2023/09/09 00:01:54;;;;;;;23.70;16.20;;;;;;;-128.00;-1.00;-1.00;105607;1251;1004394;-80
2023/09/09 00:04:20;;;;;;;23.40;16.60;;;;;;;-128.00;-1.00;-1.00;105569;1254;1004923;-80
2023/09/09 00:06:47;;;;;;;30.90;18.50;;;;;;;-128.00;-1.00;-1.00;105430;1254;1004046;-80
2023/09/09 00:09:15;;;;;;;24.30;17.30;;;;;;;-128.00;-1.00;-1.00;105388;1254;1003970;-80
2023/09/09 00:11:41;;;;;;;22.00;15.40;;;;;;;-128.00;-1.00;-1.00;105293;1254;1004625;-80
2023/09/09 00:14:07;;;;;;;23.70;16.20;;;;;;;-128.00;-1.00;-1.00;105550;1252;1004326;-80
2023/09/09 00:16:34;;;;;;;21.80;16.80;;;;;;;-128.00;-1.00;-1.00;105527;1254;1004637;-80
2023/09/09 00:19:01;;;;;;;25.00;16.70;;;;;;;-128.00;-1.00;-1.00;105580;1253;1004532;-80
2023/09/09 00:21:29;;;;;;;23.40;15.80;;;;;;;-128.00;-1.00;-1.00;105642;1254;1004995;-80
2023/09/09 00:23:56;;;;;;;22.10;14.70;;;;;;;-128.00;-1.00;-1.00;105572;1251;1005025;-80
2023/09/09 00:26:22;;;;;;;19.10;15.90;;;;;;;-128.00;-1.00;-1.00;105615;1251;1004466;-80
2023/09/09 00:28:49;;;;;;;19.90;15.50;;;;;;;-128.00;-1.00;-1.00;105663;1255;1005033;-80
2023/09/09 00:31:15;;;;;;;22.90;14.90;;;;;;;-128.00;-1.00;-1.00;105705;1253;1004303;-80
2023/09/09 00:33:41;;;;;;;20.10;14.90;;;;;;;-128.00;-1.00;-1.00;105712;1251;1004250;-80
2023/09/09 00:36:08;;;;;;;21.60;14.40;;;;;;;-128.00;-1.00;-1.00;105684;1250;1003599;-80
2023/09/09 00:38:35;;;;;;;19.40;15.60;;;;;;;-128.00;-1.00;-1.00;105430;1250;1004122;-80
2023/09/09 00:41:12;;;;;;;25.40;15.00;;;;;;;-128.00;-1.00;-1.00;105449;1256;1003885;-80
2023/09/09 00:43:39;;;;;;;19.50;14.80;;;;;;;-128.00;-1.00;-1.00;105496;1256;1046585;-80
2023/09/09 00:46:06;;;;;;;20.10;16.10;;;;;;;-128.00;-1.00;-1.00;105592;1251;1004522;-80
2023/09/09 00:48:33;;;;;;;20.50;14.60;;;;;;;-128.00;-1.00;-1.00;105464;1251;1005045;-80
2023/09/09 00:51:00;;;;;;;17.90;14.20;;;;;;;-128.00;-1.00;-1.00;105454;1251;1003688;-80
2023/09/09 00:53:26;;;;;;;16.90;13.70;;;;;;;-128.00;-1.00;-1.00;105448;1254;1004149;-80
2023/09/09 00:55:54;;;;;;;18.30;13.80;;;;;;;-128.00;-1.00;-1.00;105614;1251;1004386;-81
2023/09/09 00:58:22;;;;;;;16.80;13.00;;;;;;;-128.00;-1.00;-1.00;105672;1251;1003840;-80
2023/09/09 01:00:49;;;;;;;17.70;13.50;;;;;;;-128.00;-1.00;-1.00;105457;1257;1057807;-80
2023/09/09 01:03:16;;;;;;;19.50;13.10;;;;;;;-128.00;-1.00;-1.00;105611;1251;1005010;-80
2023/09/09 01:05:42;;;;;;;17.70;13.70;;;;;;;-128.00;-1.00;-1.00;105612;1251;1005137;-80
2023/09/09 01:08:08;;;;;;;17.60;13.70;;;;;;;-128.00;-1.00;-1.00;105638;1251;1003690;-80
2023/09/09 01:10:35;;;;;;;16.90;13.90;;;;;;;-128.00;-1.00;-1.00;105437;1251;1004094;-80
2023/09/09 01:13:03;;;;;;;18.20;12.80;;;;;;;-128.00;-1.00;-1.00;105622;1251;1003422;-80
2023/09/09 01:15:31;;;;;;;15.90;12.90;;;;;;;-128.00;-1.00;-1.00;105472;1251;1004933;-80
2023/09/09 01:17:57;;;;;;;16.70;12.80;;;;;;;-128.00;-1.00;-1.00;105611;1251;1004223;-80
2023/09/09 01:20:24;;;;;;;15.40;12.40;;;;;;;-128.00;-1.00;-1.00;105592;1251;1004749;-80
2023/09/09 01:22:50;;;;;;;19.10;12.10;;;;;;;-128.00;-1.00;-1.00;105527;1253;1004746;-80
2023/09/09 01:25:17;;;;;;;14.80;12.20;;;;;;;-128.00;-1.00;-1.00;105814;1251;1004517;-80
2023/09/09 01:27:43;;;;;;;17.60;12.80;;;;;;;-128.00;-1.00;-1.00;105702;1251;1003740;-80
2023/09/09 01:30:13;;;;;;;17.40;13.20;;;;;;;-128.00;-1.00;-1.00;105615;1251;1003907;-80
2023/09/09 01:32:39;;;;;;;20.10;13.10;;;;;;;-128.00;-1.00;-1.00;105634;1251;1047622;-80
2023/09/09 01:35:06;;;;;;;16.00;13.00;;;;;;;-128.00;-1.00;-1.00;105646;1251;1004005;-80
2023/09/09 01:37:33;;;;;;;17.60;13.80;;;;;;;-128.00;-1.00;-1.00;105630;1252;1004043;-80
2023/09/09 01:40:11;;;;;;;21.50;12.00;;;;;;;-128.00;-1.00;-1.00;105607;1251;1004857;-80
2023/09/09 01:42:38;;;;;;;19.00;12.40;;;;;;;-128.00;-1.00;-1.00;105602;1251;1045549;-80
2023/09/09 01:45:05;;;;;;;15.00;12.90;;;;;;;-128.00;-1.00;-1.00;105568;1255;1003594;-80
2023/09/09 01:47:31;;;;;;;19.30;13.00;;;;;;;-128.00;-1.00;-1.00;105609;1251;1004865;-79
2023/09/09 01:49:58;;;;;;;16.70;12.30;;;;;;;-128.00;-1.00;-1.00;105612;1251;1004530;-80
2023/09/09 01:52:24;;;;;;;18.50;13.00;;;;;;;-128.00;-1.00;-1.00;105472;1251;1004925;-80
2023/09/09 01:54:51;;;;;;;15.00;12.10;;;;;;;-128.00;-1.00;-1.00;105593;1251;1005119;-80
2023/09/09 01:57:19;;;;;;;18.30;12.90;;;;;;;-128.00;-1.00;-1.00;105609;1251;1005524;-80
2023/09/09 01:59:45;;;;;;;16.70;12.80;;;;;;;-128.00;-1.00;-1.00;105662;1251;1005011;-80
2023/09/09 02:02:15;;;;;;;19.90;13.30;;;;;;;-128.00;-1.00;-1.00;105633;1251;1004308;-80
2023/09/09 02:04:42;;;;;;;15.50;12.30;;;;;;;-128.00;-1.00;-1.00;105630;1251;1060999;-80
2023/09/09 02:07:09;;;;;;;16.90;13.50;;;;;;;-128.00;-1.00;-1.00;105614;1251;1003278;-80
2023/09/09 02:09:35;;;;;;;16.00;12.50;;;;;;;-128.00;-1.00;-1.00;105665;1251;1004199;-80
2023/09/09 02:12:03;;;;;;;17.40;13.90;;;;;;;-128.00;-1.00;-1.00;105601;1251;1004749;-80
2023/09/09 02:14:30;;;;;;;19.90;13.40;;;;;;;-128.00;-1.00;-1.00;105591;1251;1004326;-81
2023/09/09 02:16:57;;;;;;;18.70;14.40;;;;;;;-128.00;-1.00;-1.00;105609;1251;1004490;-80
2023/09/09 02:19:23;;;;;;;19.80;14.60;;;;;;;-128.00;-1.00;-1.00;105573;1251;1004281;-80
2023/09/09 02:21:50;;;;;;;19.50;14.40;;;;;;;-128.00;-1.00;-1.00;105630;1251;1004434;-80
2023/09/09 02:24:16;;;;;;;25.50;15.50;;;;;;;-128.00;-1.00;-1.00;105633;1251;1004971;-80
2023/09/09 02:26:43;;;;;;;20.90;15.30;;;;;;;-128.00;-1.00;-1.00;105630;1251;1004997;-80
2023/09/09 02:29:09;;;;;;;18.70;14.40;;;;;;;-128.00;-1.00;-1.00;105637;1251;1004530;-80
2023/09/09 02:31:36;;;;;;;21.90;15.10;;;;;;;-128.00;-1.00;-1.00;105629;1251;1004090;-80
2023/09/09 02:34:02;;;;;;;21.30;15.20;;;;;;;-128.00;-1.00;-1.00;105615;1251;1005064;-80
2023/09/09 02:36:29;;;;;;;21.40;15.10;;;;;;;-128.00;-1.00;-1.00;105591;1251;1003952;-80
2023/09/09 02:38:55;;;;;;;17.30;13.40;;;;;;;-128.00;-1.00;-1.00;105598;1251;1004330;-80
2023/09/09 02:41:21;;;;;;;18.50;14.60;;;;;;;-128.00;-1.00;-1.00;105584;1250;1004451;-80
2023/09/09 02:43:48;;;;;;;19.10;13.20;;;;;;;-128.00;-1.00;-1.00;105572;1251;1005151;-80
2023/09/09 02:46:15;;;;;;;19.50;14.30;;;;;;;-128.00;-1.00;-1.00;105462;1251;1004148;-80
2023/09/09 02:48:41;;;;;;;19.60;14.70;;;;;;;-128.00;-1.00;-1.00;105602;1251;1004610;-80
2023/09/09 02:51:08;;;;;;;19.20;12.50;;;;;;;-128.00;-1.00;-1.00;105578;1251;1003645;-80
2023/09/09 02:53:34;;;;;;;19.30;13.00;;;;;;;-128.00;-1.00;-1.00;105606;1251;1004801;-80
2023/09/09 02:56:00;;;;;;;18.70;13.90;;;;;;;-128.00;-1.00;-1.00;105603;1251;1004634;-80
2023/09/09 02:58:27;;;;;;;20.60;14.20;;;;;;;-128.00;-1.00;-1.00;105611;1251;1004471;-80
2023/09/09 03:00:53;;;;;;;22.60;14.40;;;;;;;-128.00;-1.00;-1.00;105648;1251;1004485;-80
2023/09/09 03:03:22;;;;;;;19.30;13.70;;;;;;;-128.00;-1.00;-1.00;105583;1251;1004278;-80
2023/09/09 03:05:49;;;;;;;18.90;13.50;;;;;;;-128.00;-1.00;-1.00;105634;1251;1060143;-80
2023/09/09 03:08:15;;;;;;;21.20;13.90;;;;;;;-128.00;-1.00;-1.00;105674;1250;1003837;-80
2023/09/09 03:10:42;;;;;;;19.70;12.60;;;;;;;-128.00;-1.00;-1.00;105592;1251;1004758;-80
2023/09/09 03:13:08;;;;;;;19.00;13.50;;;;;;;-128.00;-1.00;-1.00;105643;1251;1004977;-80
2023/09/09 03:15:34;;;;;;;16.30;12.10;;;;;;;-128.00;-1.00;-1.00;105605;1251;1003624;-80
2023/09/09 03:18:01;;;;;;;16.50;12.20;;;;;;;-128.00;-1.00;-1.00;105588;1250;1004504;-80
2023/09/09 03:20:27;;;;;;;23.50;12.30;;;;;;;-128.00;-1.00;-1.00;105439;1254;1004340;-80
2023/09/09 03:22:54;;;;;;;17.70;11.80;;;;;;;-128.00;-1.00;-1.00;105630;1251;1003839;-80
2023/09/09 03:25:20;;;;;;;18.60;12.80;;;;;;;-128.00;-1.00;-1.00;105604;1251;1004268;-80
2023/09/09 03:27:47;;;;;;;15.10;12.50;;;;;;;-128.00;-1.00;-1.00;105665;1251;1003641;-79
2023/09/09 03:30:13;;;;;;;17.20;11.50;;;;;;;-128.00;-1.00;-1.00;105602;1251;1003855;-80
2023/09/09 03:32:39;;;;;;;18.70;13.10;;;;;;;-128.00;-1.00;-1.00;105581;1251;1003696;-80
2023/09/09 03:35:07;;;;;;;13.80;11.50;;;;;;;-128.00;-1.00;-1.00;105615;1251;1004122;-80
2023/09/09 03:37:33;;;;;;;14.70;12.40;;;;;;;-128.00;-1.00;-1.00;105565;1251;1005280;-80
2023/09/09 03:40:00;;;;;;;17.30;13.70;;;;;;;-128.00;-1.00;-1.00;105606;1251;1004461;-80
2023/09/09 03:42:26;;;;;;;18.10;14.00;;;;;;;-128.00;-1.00;-1.00;105590;1251;1004868;-81
2023/09/09 03:44:54;;;;;;;21.30;14.80;;;;;;;-128.00;-1.00;-1.00;105569;1251;1004474;-80
2023/09/09 03:47:21;;;;;;;23.30;14.00;;;;;;;-128.00;-1.00;-1.00;105616;1251;1004582;-80
2023/09/09 03:49:50;;;;;;;21.40;14.90;;;;;;;-128.00;-1.00;-1.00;105673;1251;1004264;-80
2023/09/09 03:52:16;;;;;;;;;;;;;;;-128.00;-1.00;-1.00;105686;1250;1058281;-80
2023/09/09 03:54:43;;;;;;;18.40;13.20;;;;;;;-128.00;-1.00;-1.00;105638;1251;1004826;-79
2023/09/09 03:57:09;;;;;;;21.20;15.00;;;;;;;-128.00;-1.00;-1.00;105633;1251;1003859;-80
2023/09/09 03:59:35;;;;;;;20.70;15.60;;;;;;;-128.00;-1.00;-1.00;105581;1251;1004186;-80
2023/09/09 04:02:02;;;;;;;18.70;14.40;;;;;;;-128.00;-1.00;-1.00;105698;1251;1005032;-80
2023/09/09 04:04:29;;;;;;;24.40;14.90;;;;;;;-128.00;-1.00;-1.00;105799;1251;1004936;-80
2023/09/09 04:06:55;;;;;;;21.60;14.10;;;;;;;-128.00;-1.00;-1.00;105648;1252;1004577;-79
2023/09/09 04:09:26;;;;;;;16.50;12.90;;;;;;;-128.00;-1.00;-1.00;105449;1254;1003304;-80
2023/09/09 04:11:53;;;;;;;17.90;13.00;;;;;;;-128.00;-1.00;-1.00;105551;1252;1047018;-80
2023/09/09 04:14:19;;;;;;;18.70;12.50;;;;;;;-128.00;-1.00;-1.00;105607;1251;1003812;-79
2023/09/09 04:16:46;;;;;;;16.50;12.00;;;;;;;-128.00;-1.00;-1.00;105681;1250;1005028;-80
2023/09/09 04:19:12;;;;;;;18.00;12.60;;;;;;;-128.00;-1.00;-1.00;105511;1251;1003694;-79
2023/09/09 04:21:39;;;;;;;22.90;15.80;;;;;;;-128.00;-1.00;-1.00;105602;1251;1004649;-79
2023/09/09 04:24:05;;;;;;;24.80;18.90;;;;;;;-128.00;-1.00;-1.00;105716;1251;1005152;-80
2023/09/09 04:26:32;;;;;;;17.70;15.40;;;;;;;-128.00;-1.00;-1.00;105659;1251;1004123;-80
2023/09/09 04:29:00;;;;;;;16.00;13.10;;;;;;;-128.00;-1.00;-1.00;105609;1251;1004636;-80
2023/09/09 04:31:26;;;;;;;18.30;14.10;;;;;;;-128.00;-1.00;-1.00;105578;1251;1003811;-80
2023/09/09 04:33:52;;;;;;;17.40;14.60;;;;;;;-128.00;-1.00;-1.00;105582;1251;1004277;-80
2023/09/09 04:36:19;;;;;;;19.80;14.10;;;;;;;-128.00;-1.00;-1.00;105591;1251;1003999;-80
2023/09/09 04:38:45;;;;;;;19.70;14.70;;;;;;;-128.00;-1.00;-1.00;105640;1251;1004890;-80
2023/09/09 04:41:12;;;;;;;17.40;13.30;;;;;;;-128.00;-1.00;-1.00;105639;1256;1005608;-80
2023/09/09 04:43:38;;;;;;;18.10;14.20;;;;;;;-128.00;-1.00;-1.00;105678;1251;1004980;-80
2023/09/09 04:46:05;;;;;;;17.50;13.90;;;;;;;-128.00;-1.00;-1.00;105652;1251;1003991;-80
2023/09/09 04:48:32;;;;;;;18.70;13.20;;;;;;;-128.00;-1.00;-1.00;105648;1251;1003505;-79
2023/09/09 04:50:59;;;;;;;18.30;13.20;;;;;;;-128.00;-1.00;-1.00;105619;1251;1004300;-80
2023/09/09 04:53:27;;;;;;;17.20;13.30;;;;;;;-128.00;-1.00;-1.00;105603;1250;1003818;-80
2023/09/09 04:55:54;;;;;;;19.30;14.70;;;;;;;-128.00;-1.00;-1.00;105577;1251;1004545;-80
2023/09/09 04:58:20;;;;;;;19.80;16.40;;;;;;;-128.00;-1.00;-1.00;105578;1251;1003995;-79
2023/09/09 05:00:47;;;;;;;22.90;16.20;;;;;;;-128.00;-1.00;-1.00;105667;1251;1003939;-80
2023/09/09 05:03:13;;;;;;;20.40;17.10;;;;;;;-128.00;-1.00;-1.00;105588;1251;1004073;-80
2023/09/09 05:05:39;;;;;;;19.90;13.80;;;;;;;-128.00;-1.00;-1.00;105600;1250;1004963;-80
2023/09/09 05:08:06;;;;;;;15.20;12.20;;;;;;;-128.00;-1.00;-1.00;105622;1251;1003960;-80
2023/09/09 05:10:34;;;;;;;17.10;13.70;;;;;;;-128.00;-1.00;-1.00;105653;1251;1004732;-80
2023/09/09 05:13:00;;;;;;;20.00;13.80;;;;;;;-128.00;-1.00;-1.00;105727;1251;1003874;-80
2023/09/09 05:15:27;;;;;;;18.50;13.70;;;;;;;-128.00;-1.00;-1.00;105834;1251;1005366;-80
2023/09/09 05:17:53;;;;;;;17.80;13.20;;;;;;;-128.00;-1.00;-1.00;105667;1251;1004479;-80
2023/09/09 05:20:19;;;;;;;18.00;13.50;;;;;;;-128.00;-1.00;-1.00;105620;1251;1003988;-80
2023/09/09 05:22:46;;;;;;;21.00;14.50;;;;;;;-128.00;-1.00;-1.00;105591;1251;1004815;-80
2023/09/09 05:25:13;;;;;;;28.90;20.80;;;;;;;-128.00;-1.00;-1.00;105651;1251;1004279;-80
2023/09/09 05:27:39;;;;;;;24.00;18.60;;;;;;;-128.00;-1.00;-1.00;105641;1251;1004036;-80
2023/09/09 05:30:06;;;;;;;22.00;15.40;;;;;;;-128.00;-1.00;-1.00;105671;1251;1004813;-80
2023/09/09 05:32:32;;;;;;;19.30;14.30;;;;;;;-128.00;-1.00;-1.00;105622;1251;1004835;-80
2023/09/09 05:34:59;;;;;;;18.40;14.20;;;;;;;-128.00;-1.00;-1.00;105631;1251;1003972;-80
2023/09/09 05:37:26;;;;;;;22.70;14.70;;;;;;;-128.00;-1.00;-1.00;105662;1250;1004258;-80
2023/09/09 05:39:53;;;;;;;22.60;14.70;;;;;;;-128.00;-1.00;-1.00;105649;1251;1003616;-80
2023/09/09 05:42:19;;;;;;;19.20;14.10;;;;;;;-128.00;-1.00;-1.00;105625;1250;1005297;-80
2023/09/09 05:44:45;;;;;;;20.00;13.70;;;;;;;-128.00;-1.00;-1.00;105610;1253;1005114;-80
2023/09/09 05:47:12;;;;;;;16.00;12.70;;;;;;;-128.00;-1.00;-1.00;105590;1251;1003544;-80
2023/09/09 05:49:38;;;;;;;18.50;12.80;;;;;;;-128.00;-1.00;-1.00;105594;1251;1004741;-80
2023/09/09 05:52:05;;;;;;;13.00;11.10;;;;;;;-128.00;-1.00;-1.00;105627;1251;1003665;-80
2023/09/09 05:54:31;;;;;;;15.70;11.30;;;;;;;-128.00;-1.00;-1.00;105633;1250;1004914;-80
2023/09/09 05:56:58;;;;;;;13.50;10.70;;;;;;;-128.00;-1.00;-1.00;105606;1251;1004440;-80
2023/09/09 05:59:25;;;;;;;16.80;12.20;;;;;;;-128.00;-1.00;-1.00;105449;1251;1003550;-81
2023/09/09 06:01:51;;;;;;;14.20;10.70;;;;;;;-128.00;-1.00;-1.00;105474;1251;1004449;-80
2023/09/09 06:04:18;;;;;;;14.10;11.10;;;;;;;-128.00;-1.00;-1.00;105744;1251;1004200;-80
2023/09/09 06:06:45;;;;;;;13.40;11.10;;;;;;;-128.00;-1.00;-1.00;105706;1251;1004304;-80
2023/09/09 06:09:11;;;;;;;14.90;12.00;;;;;;;-128.00;-1.00;-1.00;105669;1252;1006036;-80
2023/09/09 06:11:38;;;;;;;15.40;11.00;;;;;;;-128.00;-1.00;-1.00;105784;1251;1004982;-80
2023/09/09 06:14:04;;;;;;;14.80;12.40;;;;;;;-128.00;-1.00;-1.00;105726;1250;1004705;-80
2023/09/09 06:16:32;;;;;;;17.80;12.20;;;;;;;-128.00;-1.00;-1.00;105645;1251;1004144;-80
2023/09/09 06:18:58;;;;;;;12.60;10.60;;;;;;;-128.00;-1.00;-1.00;105510;1251;1004096;-80
2023/09/09 06:21:25;;;;;;;15.50;12.40;;;;;;;-128.00;-1.00;-1.00;105372;1254;1004347;-80
2023/09/09 06:23:52;;;;;;;14.80;11.50;;;;;;;-128.00;-1.00;-1.00;105623;1250;1005118;-80
2023/09/09 06:26:18;;;;;;;14.80;11.30;;;;;;;-128.00;-1.00;-1.00;105613;1255;1003707;-80
2023/09/09 06:28:45;;;;;;;13.90;12.00;;;;;;;-128.00;-1.00;-1.00;105614;1250;1004817;-80
2023/09/09 06:31:11;;;;;;;16.30;10.20;;;;;;;-128.00;-1.00;-1.00;105629;1250;1004583;-80
2023/09/09 06:33:38;;;;;;;12.80;9.80;;;;;;;-128.00;-1.00;-1.00;105594;1251;1003440;-80
2023/09/09 06:36:04;;;;;;;16.20;12.00;;;;;;;-128.00;-1.00;-1.00;105619;1250;1004252;-80
2023/09/09 06:38:30;;;;;;;15.60;10.10;;;;;;;-128.00;-1.00;-1.00;105511;1251;1003817;-80
2023/09/09 06:40:57;;;;;;;15.50;10.70;;;;;;;-128.00;-1.00;-1.00;105620;1250;1005154;-80
2023/09/09 06:43:23;;;;;;;15.50;12.10;;;;;;;-128.00;-1.00;-1.00;105621;1251;1004915;-81
2023/09/09 06:45:51;;;;;;;13.40;9.90;;;;;;;-128.00;-1.00;-1.00;105571;1251;1004454;-80
2023/09/09 06:48:17;;;;;;;12.50;9.90;;;;;;;-128.00;-1.00;-1.00;105640;1250;1005073;-80
2023/09/09 06:50:47;;;;;;;13.60;10.20;;;;;;;-128.00;-1.00;-1.00;105532;1251;1004492;-81
2023/09/09 06:53:14;;;;;;;17.00;13.90;;;;;;;-128.00;-1.00;-1.00;105617;1251;1060853;-80
2023/09/09 06:55:43;;;;;;;13.50;10.60;;;;;;;-128.00;-1.00;-1.00;105546;1253;1004956;-80
2023/09/09 06:58:10;;;;;;;12.70;9.90;;;;;;;-128.00;-1.00;-1.00;105531;1252;1059109;-81
2023/09/09 07:00:37;;;;;;;13.60;9.20;;;;;;;-128.00;-1.00;-1.00;105511;1252;1004260;-80
2023/09/09 07:03:03;;;;;;;13.90;9.20;;;;;;;-128.00;-1.00;-1.00;105396;1253;1005059;-81
2023/09/09 07:05:35;;;;;;;13.10;9.00;;;;;;;-128.00;-1.00;-1.00;105492;1253;1004857;-81
2023/09/09 07:08:02;;;;;;;13.40;9.60;;;;;;;-128.00;-1.00;-1.00;105476;1252;1058204;-81
2023/09/09 07:10:30;;;;;;;13.20;8.50;;;;;;;-128.00;-1.00;-1.00;105439;1253;1003680;-81
2023/09/09 07:12:56;;;;;;;13.20;8.10;;;;;;;-128.00;-1.00;-1.00;105489;1253;1004889;-81
2023/09/09 07:15:23;;;;;;;45.80;25.30;;;;;;;-128.00;-1.00;-1.00;105436;1253;1005380;-81
2023/09/09 07:17:50;;;;;;;25.10;12.50;;;;;;;-128.00;-1.00;-1.00;105405;1253;1004011;-80
2023/09/09 07:20:16;;;;;;;10.70;7.90;;;;;;;-128.00;-1.00;-1.00;105548;1251;1004195;-82
2023/09/09 07:22:43;;;;;;;16.00;9.10;;;;;;;-128.00;-1.00;-1.00;105688;1253;1004168;-81
2023/09/09 07:25:09;;;;;;;11.20;7.90;;;;;;;-128.00;-1.00;-1.00;105670;1253;1004596;-81
2023/09/09 07:27:36;;;;;;;14.20;8.30;;;;;;;-128.00;-1.00;-1.00;105608;1253;1004230;-81
2023/09/09 07:30:04;;;;;;;12.70;8.50;;;;;;;-128.00;-1.00;-1.00;105622;1253;1005133;-82
2023/09/09 07:32:31;;;;;;;13.50;8.20;;;;;;;-128.00;-1.00;-1.00;105505;1252;1057308;-81
2023/09/09 07:35:00;;;;;;;8.20;7.40;;;;;;;-128.00;-1.00;-1.00;105430;1253;1004192;-82
2023/09/09 07:37:27;;;;;;;8.80;6.50;;;;;;;-128.00;-1.00;-1.00;105562;1251;1046985;-82
2023/09/09 07:39:55;;;;;;;10.50;8.80;;;;;;;-128.00;-1.00;-1.00;105595;1250;1004373;-82
2023/09/09 07:42:22;;;;;;;12.50;8.50;;;;;;;-128.00;-1.00;-1.00;105451;1253;1061646;-82
2023/09/09 07:44:48;;;;;;;11.50;7.20;;;;;;;-128.00;-1.00;-1.00;105465;1250;1003737;-82
2023/09/09 07:47:15;;;;;;;14.20;8.50;;;;;;;-128.00;-1.00;-1.00;105498;1252;1004449;-82
2023/09/09 07:49:41;;;;;;;8.90;7.60;;;;;;;-128.00;-1.00;-1.00;105440;1252;1004454;-82
2023/09/09 07:52:07;;;;;;;10.10;7.20;;;;;;;-128.00;-1.00;-1.00;105418;1252;1004379;-82
2023/09/09 07:54:34;;;;;;;7.70;6.90;;;;;;;-128.00;-1.00;-1.00;105497;1252;1004455;-82
2023/09/09 07:57:01;;;;;;;21.60;7.60;;;;;;;-128.00;-1.00;-1.00;105501;1252;1004642;-82
2023/09/09 07:59:28;;;;;;;12.40;9.00;;;;;;;-128.00;-1.00;-1.00;105764;1250;1003873;-82
2023/09/09 08:01:55;;;;;;;13.80;9.00;;;;;;;-128.00;-1.00;-1.00;105674;1251;1004093;-82
2023/09/09 08:04:22;;;;;;;8.30;6.70;;;;;;;-128.00;-1.00;-1.00;105587;1251;1004427;-82
2023/09/09 08:06:50;;;;;;;9.60;7.20;;;;;;;-128.00;-1.00;-1.00;105624;1251;1003761;-82
2023/09/09 08:09:17;;;;;;;8.00;6.70;;;;;;;-128.00;-1.00;-1.00;105617;1250;1058067;-82
2023/09/09 08:11:43;;;;;;;12.30;7.50;;;;;;;-128.00;-1.00;-1.00;105441;1251;1004174;-82
2023/09/09 08:14:10;;;;;;;9.10;6.80;;;;;;;-128.00;-1.00;-1.00;105513;1253;1005352;-83
2023/09/09 08:16:36;;;;;;;14.10;8.50;;;;;;;-128.00;-1.00;-1.00;105569;1250;1004349;-82
2023/09/09 08:19:03;;;;;;;7.30;6.20;;;;;;;-128.00;-1.00;-1.00;105683;1250;1004134;-82
2023/09/09 08:21:29;;;;;;;8.20;6.50;;;;;;;-128.00;-1.00;-1.00;105650;1250;1003342;-83
2023/09/09 08:23:59;;;;;;;8.90;5.80;;;;;;;-128.00;-1.00;-1.00;105606;1250;1004479;-83
2023/09/09 08:26:26;;;;;;;23.60;18.20;;;;;;;-128.00;-1.00;-1.00;105611;1250;1045216;-82
2023/09/09 08:28:52;;;;;;;9.30;7.50;;;;;;;-128.00;-1.00;-1.00;105635;1251;1003721;-83
2023/09/09 08:31:18;;;;;;;9.00;6.60;;;;;;;-128.00;-1.00;-1.00;105644;1250;1004268;-82
2023/09/09 08:33:45;;;;;;;6.90;6.20;;;;;;;-128.00;-1.00;-1.00;105615;1250;1005140;-82
2023/09/09 08:36:11;;;;;;;12.70;5.60;;;;;;;-128.00;-1.00;-1.00;105622;1250;1004481;-82
2023/09/09 08:38:38;;;;;;;6.90;5.80;;;;;;;-128.00;-1.00;-1.00;105605;1250;1004530;-83
2023/09/09 08:41:21;;;;;;;10.00;6.20;;;;;;;-128.00;-1.00;-1.00;105608;1250;1004035;-82
2023/09/09 08:44:25;;;;;;;7.40;5.80;;;;;;;-128.00;-1.00;-1.00;105517;1251;1061354;-82
2023/09/09 08:46:53;;;;;;;11.20;6.90;;;;;;;-128.00;-1.00;-1.00;105609;1250;1059548;-83
2023/09/09 08:49:20;;;;;;;;;;;;;;;-128.00;-1.00;-1.00;105431;1253;1005353;-83
2023/09/09 08:51:49;;;;;;;8.40;5.80;;;;;;;-128.00;-1.00;-1.00;105797;1250;1003868;-83
2023/09/09 08:54:16;;;;;;;23.70;8.30;;;;;;;-128.00;-1.00;-1.00;105792;1251;1046738;-83
2023/09/09 08:56:43;;;;;;;6.80;6.00;;;;;;;-128.00;-1.00;-1.00;105643;1251;1003843;-83
2023/09/09 08:59:09;;;;;;;10.30;5.50;;;;;;;-128.00;-1.00;-1.00;105846;1250;1004121;-84
2023/09/09 09:01:36;;;;;;;9.20;5.30;;;;;;;-128.00;-1.00;-1.00;105679;1251;1004243;-83
2023/09/09 09:04:02;;;;;;;7.00;6.10;;;;;;;-128.00;-1.00;-1.00;105721;1251;1003881;-83
2023/09/09 09:06:29;;;;;;;7.00;5.70;;;;;;;-128.00;-1.00;-1.00;105696;1251;1004444;-83
2023/09/09 09:08:55;;;;;;;11.50;6.20;;;;;;;-128.00;-1.00;-1.00;105859;1251;1004150;-82
2023/09/09 09:11:22;;;;;;;11.30;6.70;;;;;;;-128.00;-1.00;-1.00;105913;1251;1003426;-83
2023/09/09 09:13:50;;;;;;;9.30;6.00;;;;;;;-128.00;-1.00;-1.00;105591;1251;1003450;-83
2023/09/09 09:16:18;;;;;;;17.10;6.50;;;;;;;-128.00;-1.00;-1.00;105604;1250;1004908;-82
2023/09/09 09:18:44;;;;;;;8.70;6.20;;;;;;;-128.00;-1.00;-1.00;105588;1251;1003897;-84
2023/09/09 09:21:11;;;;;;;11.00;6.80;;;;;;;-128.00;-1.00;-1.00;105666;1251;1004884;-82
2023/09/09 09:23:46;;;;;;;12.20;6.50;;;;;;;-128.00;-1.00;-1.00;105619;1250;1004427;-82
2023/09/09 09:26:26;;;;;;;11.50;7.60;;;;;;;-128.00;-1.00;-1.00;105721;1250;1059166;-82
2023/09/09 09:28:53;;;;;;;8.10;5.90;;;;;;;-128.00;-1.00;-1.00;105774;1250;1045094;-82
2023/09/09 09:31:21;;;;;;;25.30;7.60;;;;;;;-128.00;-1.00;-1.00;105859;1250;1003619;-82
2023/09/09 09:33:48;;;;;;;13.20;8.20;;;;;;;-128.00;-1.00;-1.00;105940;1251;1003635;-82
2023/09/09 09:36:20;;;;;;;14.40;8.10;;;;;;;-128.00;-1.00;-1.00;105919;1251;1003763;-82
2023/09/09 09:38:50;;;;;;;12.80;7.40;;;;;;;-128.00;-1.00;-1.00;105499;1253;1058336;-82
2023/09/09 09:41:17;;;;;;;8.60;6.80;;;;;;;-128.00;-1.00;-1.00;105408;1251;1044838;-82
2023/09/09 09:43:48;;;;;;;17.80;10.30;;;;;;;-128.00;-1.00;-1.00;105559;1250;1004223;-81
2023/09/09 09:46:19;;;;;;;14.60;9.00;;;;;;;-128.00;-1.00;-1.00;105640;1250;1061543;-81
2023/09/09 09:48:45;;;;;;;11.30;7.80;;;;;;;-128.00;-1.00;-1.00;105717;1251;1057664;-82
2023/09/09 09:51:11;;;;;;;17.50;8.60;;;;;;;-128.00;-1.00;-1.00;105500;1253;1004196;-81
2023/09/09 09:53:47;;;;;;;17.10;9.30;;;;;;;-128.00;-1.00;-1.00;105566;1253;1003908;-82
2023/09/09 09:56:17;;;;;;;12.50;9.70;;;;;;;-128.00;-1.00;-1.00;105610;1250;1048164;-81
2023/09/09 09:58:45;;;;;;;11.00;8.10;;;;;;;-128.00;-1.00;-1.00;105612;1251;1061059;-82
2023/09/09 10:01:12;;;;;;;;;;;;;;;-128.00;-1.00;-1.00;105564;1251;1058078;-81
2023/09/09 10:03:55;;;;;;;12.80;8.50;;;;;;;-128.00;-1.00;-1.00;105510;1253;1004754;-81
2023/09/09 10:06:26;;;;;;;11.10;8.40;;;;;;;-128.00;-1.00;-1.00;105541;1252;1044560;-82
2023/09/09 10:08:59;;;;;;;12.80;9.30;;;;;;;-128.00;-1.00;-1.00;105798;1251;1046969;-82
2023/09/09 10:11:28;;;;;;;12.50;8.50;;;;;;;-128.00;-1.00;-1.00;105695;1251;1061970;-81
2023/09/09 10:14:14;;;;;;;13.80;9.00;;;;;;;-128.00;-1.00;-1.00;105507;1251;1056797;-82
2023/09/09 10:16:44;;;;;;;9.60;8.40;;;;;;;-128.00;-1.00;-1.00;105582;1250;1059364;-81
2023/09/09 10:19:11;;;;;;;14.10;8.50;;;;;;;-128.00;-1.00;-1.00;105427;1251;1046074;-81
2023/09/09 10:21:37;;;;;;;11.40;8.00;;;;;;;-128.00;-1.00;-1.00;105531;1251;1003817;-82
2023/09/09 10:24:05;;;;;;;10.50;8.30;;;;;;;-128.00;-1.00;-1.00;105627;1250;1005185;-81
2023/09/09 10:26:32;;;;;;;14.90;8.80;;;;;;;-128.00;-1.00;-1.00;105467;1256;1004837;-81
2023/09/09 10:29:01;;;;;;;11.50;8.10;;;;;;;-128.00;-1.00;-1.00;105639;1250;1003768;-81
2023/09/09 10:31:31;;;;;;;10.60;7.70;;;;;;;-128.00;-1.00;-1.00;105712;1251;1045188;-81
2023/09/09 10:33:57;;;;;;;9.50;7.60;;;;;;;-128.00;-1.00;-1.00;105496;1257;1047453;-81
2023/09/09 10:36:24;;;;;;;13.20;9.10;;;;;;;-128.00;-1.00;-1.00;105763;1251;1003513;-81
2023/09/09 10:38:53;;;;;;;9.70;7.50;;;;;;;-128.00;-1.00;-1.00;105901;1250;1004309;-81
2023/09/09 10:41:19;;;;;;;7.30;6.50;;;;;;;-128.00;-1.00;-1.00;105903;1250;1004383;-81
2023/09/09 10:43:45;;;;;;;8.80;7.00;;;;;;;-128.00;-1.00;-1.00;105742;1250;1004007;-82
2023/09/09 10:46:12;;;;;;;11.20;6.70;;;;;;;-128.00;-1.00;-1.00;105803;1251;1004534;-82
2023/09/09 10:48:39;;;;;;;8.60;6.50;;;;;;;-128.00;-1.00;-1.00;105745;1253;1004750;-82
2023/09/09 10:51:05;;;;;;;8.30;6.90;;;;;;;-128.00;-1.00;-1.00;105711;1251;1004766;-82
2023/09/09 10:53:32;;;;;;;7.40;6.00;;;;;;;-128.00;-1.00;-1.00;105691;1250;1003708;-82
2023/09/09 10:56:00;;;;;;;9.60;7.10;;;;;;;-128.00;-1.00;-1.00;105632;1252;1004161;-81
2023/09/09 10:58:45;;;;;;;11.40;6.50;;;;;;;-128.00;-1.00;-1.00;105373;1257;1004022;-82
2023/09/09 11:01:21;;;;;;;7.80;6.40;;;;;;;-128.00;-1.00;-1.00;105508;1251;1061392;-82
2023/09/09 11:03:48;;;;;;;11.20;7.30;;;;;;;-128.00;-1.00;-1.00;105574;1252;1058372;-81
2023/09/09 11:06:25;;;;;;;9.10;6.20;;;;;;;-128.00;-1.00;-1.00;105560;1251;1004215;-81
2023/09/09 11:08:55;;;;;;;9.70;6.70;;;;;;;-128.00;-1.00;-1.00;105414;1251;1045221;-81